Time;durP1;ratioP1;P1;durP2;ratioP2;P2;SDS_P1;SDS_P2;PMS_P1;PMS_P2;Temp;Humidity;BMP_temperature;BMP_pressure;BME280_temperature;BME280_humidity;BME280_pressure;Samples;Min_cycle;Max_cycle;Signal;HPM_P1;HPM_P2
2020/12/16 00:01:06;;;;;;;17.38;9.82;;;7.20;99.90;;;;;;5026889;28;20104;-70
2020/12/16 00:03:33;;;;;;;22.27;11.00;;;7.20;99.90;;;;;;5021638;28;20128;-70
2020/12/16 00:06:01;;;;;;;17.92;10.30;;;7.20;99.90;;;;;;5019945;28;20479;-70
2020/12/16 00:08:28;;;;;;;12.60;7.43;;;7.20;99.90;;;;;;5022304;28;21154;-69
2020/12/16 00:10:55;;;;;;;23.98;10.35;;;7.20;99.90;;;;;;5031322;28;20517;-69
2020/12/16 00:13:22;;;;;;;19.73;11.68;;;7.20;99.90;;;;;;5028089;28;20420;-70
2020/12/16 00:15:49;;;;;;;18.40;10.18;;;7.20;99.90;;;;;;5032142;28;20143;-69
2020/12/16 00:18:16;;;;;;;19.17;10.93;;;7.20;99.90;;;;;;5025980;28;20050;-69
2020/12/16 00:20:42;;;;;;;23.75;12.00;;;7.30;99.90;;;;;;5021279;28;20136;-69
2020/12/16 00:23:10;;;;;;;18.58;10.35;;;7.30;99.90;;;;;;5028123;28;20057;-69
2020/12/16 00:25:37;;;;;;;24.80;11.05;;;7.20;99.90;;;;;;5032750;28;20049;-69
2020/12/16 00:28:03;;;;;;;23.48;10.43;;;7.20;99.90;;;;;;5025815;28;20104;-69
2020/12/16 00:30:29;;;;;;;22.23;11.68;;;7.20;99.90;;;;;;5025210;28;20041;-69
2020/12/16 00:32:56;;;;;;;22.38;11.43;;;7.20;99.90;;;;;;5023043;28;20050;-69
2020/12/16 00:35:22;;;;;;;17.35;10.52;;;7.20;99.90;;;;;;5022696;28;20440;-69
2020/12/16 00:37:49;;;;;;;21.30;11.18;;;7.20;99.90;;;;;;5026322;28;20053;-69
2020/12/16 00:40:17;;;;;;;25.48;11.10;;;7.20;99.90;;;;;;5021327;28;20054;-69
2020/12/16 00:42:48;;;;;;;26.58;10.18;;;7.20;99.90;;;;;;5027602;28;20057;-70
2020/12/16 00:45:16;;;;;;;19.73;10.02;;;7.20;99.90;;;;;;5030338;28;20099;-69
2020/12/16 00:47:43;;;;;;;24.23;10.18;;;7.20;99.90;;;;;;5023087;28;20111;-69
2020/12/16 00:50:10;;;;;;;16.95;9.38;;;7.20;99.90;;;;;;5026719;28;20046;-69
2020/12/16 00:52:51;;;;;;;38.25;10.77;;;7.10;99.90;;;;;;5026493;28;20115;-69
2020/12/16 00:55:19;;;;;;;20.92;9.70;;;7.10;99.90;;;;;;5018515;28;20144;-69
2020/12/16 00:57:46;;;;;;;22.63;10.00;;;7.10;99.90;;;;;;5024475;28;20053;-69
2020/12/16 01:00:14;;;;;;;23.30;8.82;;;7.10;99.90;;;;;;5023729;28;20077;-69
2020/12/16 01:02:44;;;;;;;16.83;10.00;;;7.00;99.90;;;;;;5025742;28;20440;-69
2020/12/16 01:05:15;;;;;;;25.15;9.73;;;7.00;99.90;;;;;;5034255;28;20050;-69
2020/12/16 01:07:42;;;;;;;35.05;10.25;;;7.00;99.90;;;;;;5023403;28;20049;-69
2020/12/16 01:10:10;;;;;;;20.85;10.23;;;7.00;99.90;;;;;;5018503;28;20472;-69
2020/12/16 01:12:38;;;;;;;31.27;9.95;;;7.00;99.90;;;;;;5022453;28;20412;-69
2020/12/16 01:15:11;;;;;;;21.65;9.18;;;7.00;99.90;;;;;;5030434;28;20139;-69
2020/12/16 01:17:48;;;;;;;20.77;8.88;;;7.00;99.90;;;;;;5027574;28;20061;-69
2020/12/16 01:20:15;;;;;;;29.95;10.45;;;7.00;99.90;;;;;;5022294;28;20119;-69
2020/12/16 01:22:46;;;;;;;21.63;10.55;;;7.00;99.90;;;;;;5026406;28;20049;-69
2020/12/16 01:25:18;;;;;;;23.35;10.05;;;6.90;99.90;;;;;;5031905;28;20488;-69
2020/12/16 01:27:50;;;;;;;26.25;9.40;;;6.90;99.90;;;;;;5026852;28;20045;-69
2020/12/16 01:30:17;;;;;;;21.60;9.65;;;6.90;99.90;;;;;;5025688;28;20503;-69
2020/12/16 01:32:44;;;;;;;24.75;10.25;;;6.90;99.90;;;;;;5027535;28;20045;-69
2020/12/16 01:35:11;;;;;;;21.92;9.23;;;6.90;99.90;;;;;;5026611;28;20104;-69
2020/12/16 01:37:38;;;;;;;27.05;10.60;;;6.90;99.90;;;;;;5020308;28;20095;-69
2020/12/16 01:40:06;;;;;;;23.15;9.65;;;6.90;99.90;;;;;;5021817;28;20108;-69
2020/12/16 01:42:34;;;;;;;26.77;10.05;;;7.00;99.90;;;;;;5027650;28;20507;-69
2020/12/16 01:45:09;;;;;;;18.13;9.43;;;7.00;99.90;;;;;;5024074;28;20057;-69
2020/12/16 01:47:36;;;;;;;18.42;9.65;;;7.00;99.90;;;;;;5022899;28;20084;-69
2020/12/16 01:50:05;;;;;;;26.52;9.63;;;7.00;99.90;;;;;;5022206;28;20128;-69
2020/12/16 01:52:31;;;;;;;18.65;9.82;;;7.00;99.90;;;;;;5021246;28;20041;-69
2020/12/16 01:55:00;;;;;;;20.58;9.32;;;7.00;99.90;;;;;;5029176;28;20045;-69
2020/12/16 01:57:29;;;;;;;16.33;10.02;;;7.00;99.90;;;;;;5026046;28;20073;-69
2020/12/16 01:59:58;;;;;;;21.30;9.63;;;7.00;99.90;;;;;;5020559;28;20128;-69
2020/12/16 02:02:26;;;;;;;25.05;9.63;;;6.90;99.90;;;;;;5023354;28;20053;-69
2020/12/16 02:04:57;;;;;;;25.15;10.38;;;6.90;99.90;;;;;;5027915;28;20543;-69
2020/12/16 02:07:25;;;;;;;13.68;8.25;;;6.90;99.90;;;;;;5027027;28;20489;-70
2020/12/16 02:09:52;;;;;;;18.38;8.98;;;6.90;99.90;;;;;;5029907;28;20492;-69
2020/12/16 02:12:21;;;;;;;24.50;9.90;;;6.90;99.90;;;;;;5028308;28;20566;-70
2020/12/16 02:14:47;;;;;;;20.00;9.60;;;6.80;99.90;;;;;;5028118;28;20144;-69
2020/12/16 02:17:14;;;;;;;17.27;9.27;;;6.80;99.90;;;;;;5026819;28;20061;-69
2020/12/16 02:19:43;;;;;;;27.85;10.68;;;6.80;99.90;;;;;;5028338;28;20042;-69
2020/12/16 02:22:11;;;;;;;15.27;9.23;;;6.80;99.90;;;;;;5022221;28;20759;-69
2020/12/16 02:25:07;;;;;;;20.23;10.02;;;6.80;99.90;;;;;;5014334;28;20467;-69
2020/12/16 02:27:35;;;;;;;23.38;10.30;;;6.80;99.90;;;;;;5014911;28;20440;-69
2020/12/16 02:30:04;;;;;;;26.77;10.38;;;6.80;99.90;;;;;;5020344;28;20076;-69
2020/12/16 02:32:35;;;;;;;17.58;9.48;;;6.80;99.90;;;;;;5018916;28;20077;-69
2020/12/16 02:35:02;;;;;;;22.33;9.93;;;6.70;99.90;;;;;;5022477;28;20078;-69
2020/12/16 02:37:29;;;;;;;23.45;10.32;;;6.70;99.90;;;;;;5024768;28;20053;-69
2020/12/16 02:39:56;;;;;;;24.52;10.18;;;6.70;99.90;;;;;;5022818;28;20054;-69
2020/12/16 02:42:27;;;;;;;16.67;9.93;;;6.70;99.90;;;;;;5019860;28;20089;-68
2020/12/16 02:44:57;;;;;;;22.00;11.00;;;6.60;99.90;;;;;;5026854;28;20450;-69
2020/12/16 02:47:25;;;;;;;22.83;10.25;;;6.60;99.90;;;;;;5025409;28;20065;-69
2020/12/16 02:49:52;;;;;;;27.92;9.95;;;6.60;99.90;;;;;;5021515;28;20100;-69
2020/12/16 02:52:18;;;;;;;25.98;9.75;;;6.60;99.90;;;;;;5026749;28;20547;-69
2020/12/16 02:54:45;;;;;;;27.05;10.82;;;6.60;99.90;;;;;;5018608;28;20090;-69
2020/12/16 02:57:12;;;;;;;21.60;11.57;;;6.60;99.90;;;;;;5019573;28;20077;-69
2020/12/16 02:59:38;;;;;;;30.67;13.23;;;6.50;99.90;;;;;;5026141;28;20460;-69
2020/12/16 03:02:05;;;;;;;17.35;10.45;;;6.40;99.90;;;;;;5016309;28;20471;-69
2020/12/16 03:04:32;;;;;;;22.58;11.55;;;6.40;99.90;;;;;;5020057;28;20344;-69
2020/12/16 03:06:58;;;;;;;30.17;11.80;;;6.40;99.90;;;;;;5013699;28;20041;-69
2020/12/16 03:09:26;;;;;;;37.95;13.50;;;6.30;99.90;;;;;;5023782;28;20045;-69
2020/12/16 03:11:54;;;;;;;18.75;10.88;;;6.40;99.90;;;;;;5027700;28;20049;-69
2020/12/16 03:14:23;;;;;;;30.40;13.23;;;6.30;99.90;;;;;;5026010;28;20041;-69
2020/12/16 03:16:49;;;;;;;23.88;11.95;;;6.30;99.90;;;;;;5025224;28;20116;-69
2020/12/16 03:19:16;;;;;;;25.48;11.95;;;6.40;99.90;;;;;;5023709;28;20089;-69
2020/12/16 03:21:43;;;;;;;25.67;11.38;;;6.30;99.90;;;;;;5040329;28;20385;-69
2020/12/16 03:24:25;;;;;;;27.08;12.00;;;6.30;99.90;;;;;;5027508;28;20404;-69
2020/12/16 03:26:52;;;;;;;27.02;12.00;;;6.30;99.90;;;;;;5020467;28;20092;-69
2020/12/16 03:29:18;;;;;;;28.17;12.15;;;6.40;99.90;;;;;;5025321;28;20421;-69
2020/12/16 03:31:46;;;;;;;26.85;11.13;;;6.40;99.90;;;;;;5017523;28;20046;-69
2020/12/16 03:34:12;;;;;;;23.80;12.23;;;6.40;99.90;;;;;;5017428;28;20053;-69
2020/12/16 03:36:39;;;;;;;22.80;10.18;;;6.40;99.90;;;;;;5024647;28;20053;-69
2020/12/16 03:39:05;;;;;;;22.13;11.40;;;6.40;99.90;;;;;;5020562;28;20123;-69
2020/12/16 03:41:33;;;;;;;29.48;13.07;;;6.40;99.90;;;;;;5028956;28;20049;-69
2020/12/16 03:44:00;;;;;;;24.45;11.38;;;6.40;99.90;;;;;;5017443;28;20046;-69
2020/12/16 03:46:27;;;;;;;26.13;13.05;;;6.40;99.90;;;;;;5014325;28;20122;-69
2020/12/16 03:48:54;;;;;;;44.60;14.57;;;6.40;99.90;;;;;;5023336;28;20053;-69
2020/12/16 03:51:21;;;;;;;24.98;12.25;;;6.50;99.90;;;;;;5026242;28;20053;-69
2020/12/16 03:53:47;;;;;;;24.60;12.18;;;6.50;99.90;;;;;;5022792;28;20050;-69
2020/12/16 03:56:15;;;;;;;19.23;11.50;;;6.50;99.90;;;;;;5024544;28;20480;-69
2020/12/16 03:58:47;;;;;;;24.20;11.45;;;6.50;99.90;;;;;;5025658;28;20508;-69
2020/12/16 04:01:16;;;;;;;25.35;12.15;;;6.50;99.90;;;;;;5025618;28;20073;-69
2020/12/16 04:03:42;;;;;;;;;;;6.50;99.90;;;;;;5019467;28;20123;-69
2020/12/16 04:06:10;;;;;;;19.95;10.00;;;6.50;99.90;;;;;;5019979;28;20368;-69
2020/12/16 04:08:38;;;;;;;29.80;12.57;;;6.50;99.90;;;;;;5016981;28;20443;-69
2020/12/16 04:11:10;;;;;;;28.38;12.52;;;6.50;99.90;;;;;;5023515;28;20045;-69
2020/12/16 04:13:38;;;;;;;33.10;12.55;;;6.50;99.90;;;;;;5024329;28;20443;-69
2020/12/16 04:16:07;;;;;;;19.42;9.93;;;6.50;99.90;;;;;;5017928;28;20053;-69
2020/12/16 04:18:35;;;;;;;23.55;11.68;;;6.50;99.90;;;;;;5026988;28;20041;-69
2020/12/16 04:21:04;;;;;;;23.77;13.50;;;6.50;99.90;;;;;;5031994;28;20049;-69
2020/12/16 04:23:31;;;;;;;17.20;9.57;;;6.50;99.90;;;;;;5022861;28;20104;-69
2020/12/16 04:25:58;;;;;;;24.80;11.80;;;6.50;99.90;;;;;;5029421;28;20061;-69
2020/12/16 04:28:24;;;;;;;20.42;10.30;;;6.50;99.90;;;;;;5020055;28;20115;-69
2020/12/16 04:30:51;;;;;;;19.02;11.27;;;6.50;99.90;;;;;;5032568;28;20054;-69
2020/12/16 04:33:18;;;;;;;14.43;9.10;;;6.50;99.90;;;;;;5028591;28;20132;-69
2020/12/16 04:35:44;;;;;;;23.58;10.68;;;6.50;99.90;;;;;;5032939;28;20046;-69
2020/12/16 04:38:10;;;;;;;29.52;11.90;;;6.60;99.90;;;;;;5018288;28;20127;-69
2020/12/16 04:40:37;;;;;;;36.80;11.82;;;6.60;99.90;;;;;;5027384;28;20062;-69
2020/12/16 04:43:07;;;;;;;21.95;11.85;;;6.60;99.90;;;;;;5023364;28;20081;-69
2020/12/16 04:45:38;;;;;;;21.20;11.30;;;6.60;99.90;;;;;;5027380;28;20111;-69
2020/12/16 04:48:09;;;;;;;23.55;10.57;;;6.60;99.90;;;;;;5022242;28;20068;-69
2020/12/16 04:50:36;;;;;;;28.00;10.82;;;6.60;99.90;;;;;;5021593;28;20390;-69
2020/12/16 04:53:06;;;;;;;28.23;13.05;;;6.60;99.90;;;;;;5014516;28;20574;-69
2020/12/16 04:55:37;;;;;;;21.17;12.15;;;6.60;99.90;;;;;;5029918;28;20419;-69
2020/12/16 04:58:05;;;;;;;24.40;12.55;;;6.60;99.90;;;;;;5021086;28;20062;-69
2020/12/16 05:00:33;;;;;;;25.45;11.68;;;6.60;99.90;;;;;;5028386;28;20045;-69
2020/12/16 05:03:02;;;;;;;19.90;11.05;;;6.60;99.90;;;;;;5022117;28;20057;-69
2020/12/16 05:05:29;;;;;;;20.88;11.00;;;6.60;99.90;;;;;;5029335;28;20584;-69
2020/12/16 05:07:57;;;;;;;16.85;10.25;;;6.60;99.90;;;;;;5019293;28;20053;-69
2020/12/16 05:10:34;;;;;;;19.20;11.07;;;6.60;99.90;;;;;;5022507;28;20650;-69
2020/12/16 05:13:09;;;;;;;18.90;10.95;;;6.60;99.90;;;;;;5025231;28;20050;-69
2020/12/16 05:15:41;;;;;;;19.65;10.60;;;6.60;99.90;;;;;;5022070;28;20050;-69
2020/12/16 05:18:18;;;;;;;16.13;10.05;;;6.70;99.90;;;;;;5018229;28;20077;-69
2020/12/16 05:20:52;;;;;;;17.90;8.38;;;6.70;99.90;;;;;;5024285;28;20076;-69
2020/12/16 05:23:31;;;;;;;22.45;10.63;;;6.70;99.90;;;;;;5015783;28;20128;-69
2020/12/16 05:26:00;;;;;;;19.05;11.40;;;6.70;99.90;;;;;;5019454;28;20463;-69
2020/12/16 05:28:29;;;;;;;21.45;10.43;;;6.70;99.90;;;;;;5023366;28;20054;-69
2020/12/16 05:30:57;;;;;;;18.77;9.30;;;6.60;99.90;;;;;;5024676;28;20540;-69
2020/12/16 05:33:24;;;;;;;23.63;10.57;;;6.60;99.90;;;;;;5022374;28;20045;-69
2020/12/16 05:35:53;;;;;;;18.25;10.65;;;6.60;99.90;;;;;;5024269;28;20104;-69
2020/12/16 05:38:22;;;;;;;20.67;11.88;;;6.60;99.90;;;;;;5018729;28;20088;-69
2020/12/16 05:40:48;;;;;;;21.08;11.85;;;6.60;99.90;;;;;;5031593;28;20185;-69
2020/12/16 05:43:30;;;;;;;23.10;11.40;;;6.60;99.90;;;;;;5025427;28;20084;-69
2020/12/16 05:45:56;;;;;;;21.83;11.73;;;6.50;99.90;;;;;;5015062;28;20065;-69
2020/12/16 05:48:29;;;;;;;22.13;11.27;;;6.50;99.90;;;;;;5027417;28;20049;-69
2020/12/16 05:50:59;;;;;;;19.13;11.57;;;6.50;99.90;;;;;;5020401;28;20081;-69
2020/12/16 05:53:26;;;;;;;21.38;10.88;;;6.60;99.90;;;;;;5023802;28;20563;-69
2020/12/16 05:55:57;;;;;;;27.40;11.90;;;6.50;99.90;;;;;;5028868;28;20132;-69
2020/12/16 05:58:28;;;;;;;22.83;11.98;;;6.50;99.90;;;;;;5022215;28;20552;-69
2020/12/16 06:01:04;;;;;;;21.17;10.57;;;6.50;99.90;;;;;;5023371;28;20133;-69
2020/12/16 06:03:33;;;;;;;27.20;12.30;;;6.50;99.90;;;;;;5025722;28;20411;-68
2020/12/16 06:06:01;;;;;;;26.35;10.10;;;6.50;99.90;;;;;;5036706;28;20168;-70
2020/12/16 06:08:43;;;;;;;20.88;10.52;;;6.50;99.90;;;;;;5017941;28;20394;-70
2020/12/16 06:11:12;;;;;;;31.75;10.88;;;6.50;99.90;;;;;;5022360;28;20100;-70
2020/12/16 06:13:44;;;;;;;29.23;11.50;;;6.40;99.90;;;;;;5024707;28;20050;-69
2020/12/16 06:16:11;;;;;;;22.75;10.35;;;6.40;99.90;;;;;;5026947;28;20048;-70
2020/12/16 06:18:47;;;;;;;16.85;8.98;;;6.40;99.90;;;;;;5016949;28;20387;-70
2020/12/16 06:21:14;;;;;;;19.08;10.20;;;6.40;99.90;;;;;;5020315;28;20053;-70
2020/12/16 06:23:43;;;;;;;40.10;13.50;;;6.30;99.90;;;;;;5022188;28;20061;-70
2020/12/16 06:26:11;;;;;;;29.45;11.77;;;6.30;99.90;;;;;;5024785;28;20060;-69
2020/12/16 06:28:38;;;;;;;18.92;11.73;;;6.30;99.90;;;;;;5020265;28;20131;-68
2020/12/16 06:31:27;;;;;;;22.38;11.38;;;6.20;99.90;;;;;;5020865;28;20090;-69
2020/12/16 06:34:00;;;;;;;19.55;9.85;;;6.20;99.90;;;;;;5010847;28;20072;-69
2020/12/16 06:36:38;;;;;;;26.60;11.40;;;6.20;99.90;;;;;;5025163;28;20134;-69
2020/12/16 06:39:15;;;;;;;24.23;11.07;;;6.20;99.90;;;;;;5017848;28;20050;-69
2020/12/16 06:41:53;;;;;;;20.25;11.27;;;6.20;99.90;;;;;;5025521;28;20049;-69
2020/12/16 06:44:21;;;;;;;19.50;10.23;;;6.20;99.90;;;;;;5017061;28;20057;-69
2020/12/16 06:46:50;;;;;;;18.52;10.10;;;6.20;99.90;;;;;;5034692;28;20385;-69
2020/12/16 06:49:22;;;;;;;16.45;10.02;;;6.20;99.90;;;;;;5025706;28;20122;-69
2020/12/16 06:51:54;;;;;;;18.73;11.13;;;6.20;99.90;;;;;;5025147;28;20041;-69
2020/12/16 06:54:22;;;;;;;18.05;9.85;;;6.20;99.90;;;;;;5021031;28;20058;-69
2020/12/16 06:56:50;;;;;;;21.92;11.60;;;6.20;99.90;;;;;;5018094;28;20058;-69
2020/12/16 06:59:43;;;;;;;19.77;11.40;;;6.20;99.90;;;;;;5029326;28;20050;-69
2020/12/16 07:02:12;;;;;;;20.88;10.32;;;6.20;99.90;;;;;;5021183;28;20135;-69
2020/12/16 07:04:38;;;;;;;21.67;10.82;;;6.20;99.90;;;;;;5020131;28;20055;-68
2020/12/16 07:07:05;;;;;;;18.58;10.27;;;6.20;99.90;;;;;;5020251;28;22065;-69
2020/12/16 07:09:44;;;;;;;29.77;10.23;;;6.20;99.90;;;;;;5018681;28;20055;-69
2020/12/16 07:12:28;;;;;;;14.38;8.60;;;6.20;99.90;;;;;;5022992;28;20155;-69
2020/12/16 07:14:55;;;;;;;14.13;8.20;;;6.20;99.90;;;;;;5024139;28;20149;-69
2020/12/16 07:17:22;;;;;;;17.48;9.57;;;6.20;99.90;;;;;;5021479;28;20570;-69
2020/12/16 07:19:49;;;;;;;17.00;9.38;;;6.20;99.90;;;;;;5022350;28;20057;-69
2020/12/16 07:22:22;;;;;;;16.77;9.18;;;6.10;99.90;;;;;;5022893;28;20057;-69
2020/12/16 07:24:50;;;;;;;20.25;10.68;;;6.10;99.90;;;;;;5029581;28;20054;-69
2020/12/16 07:27:21;;;;;;;18.08;8.52;;;6.10;99.90;;;;;;5022842;28;20060;-69
2020/12/16 07:29:58;;;;;;;20.08;10.13;;;6.10;99.90;;;;;;5019333;28;20053;-69
2020/12/16 07:32:27;;;;;;;19.70;10.70;;;6.00;99.90;;;;;;5025265;28;20112;-69
2020/12/16 07:34:58;;;;;;;21.07;10.57;;;6.00;99.90;;;;;;5023398;28;20057;-69
2020/12/16 07:37:30;;;;;;;24.55;10.68;;;5.90;99.90;;;;;;5021985;28;20671;-69
2020/12/16 07:40:10;;;;;;;19.30;9.68;;;5.90;99.90;;;;;;5043549;28;20486;-69
2020/12/16 07:42:37;;;;;;;16.17;9.45;;;5.90;99.90;;;;;;5017548;28;20056;-69
2020/12/16 07:45:06;;;;;;;14.40;9.18;;;5.80;99.90;;;;;;5024396;28;20049;-69
2020/12/16 07:47:33;;;;;;;20.90;11.70;;;5.80;99.90;;;;;;5016688;28;20530;-69
2020/12/16 07:50:00;;;;;;;17.98;10.35;;;5.80;99.90;;;;;;5025261;28;20080;-69
2020/12/16 07:52:30;;;;;;;16.05;9.88;;;5.80;99.90;;;;;;5026078;28;20120;-69
2020/12/16 07:54:56;;;;;;;;;;;5.80;99.90;;;;;;5032530;28;20475;-69
2020/12/16 07:57:34;;;;;;;17.38;7.60;;;5.80;99.90;;;;;;5020382;28;19967;-69
2020/12/16 08:00:01;;;;;;;15.50;9.07;;;5.80;99.90;;;;;;5042003;28;20080;-70
2020/12/16 08:02:28;;;;;;;13.43;8.55;;;5.80;99.90;;;;;;5027000;28;20451;-70
2020/12/16 08:05:03;;;;;;;13.18;8.45;;;5.80;99.90;;;;;;5017939;28;20054;-70
2020/12/16 08:07:31;;;;;;;11.38;7.65;;;5.80;99.90;;;;;;5021689;28;20085;-69
2020/12/16 08:10:06;;;;;;;14.95;8.85;;;5.80;99.90;;;;;;5023502;28;20045;-69
2020/12/16 08:12:41;;;;;;;13.90;8.40;;;5.80;99.90;;;;;;5012597;28;20053;-69
2020/12/16 08:15:17;;;;;;;13.25;8.75;;;5.80;99.90;;;;;;5014462;28;20152;-69
2020/12/16 08:17:46;;;;;;;13.38;8.27;;;5.80;99.90;;;;;;5010758;28;20061;-69
2020/12/16 08:20:23;;;;;;;13.32;8.52;;;5.70;99.90;;;;;;5014757;28;20045;-69
2020/12/16 08:22:55;;;;;;;16.15;9.18;;;5.70;99.90;;;;;;5011355;28;20100;-69
2020/12/16 08:25:22;;;;;;;14.80;8.50;;;5.70;99.90;;;;;;5016185;28;20369;-69
2020/12/16 08:27:51;;;;;;;15.70;8.55;;;5.70;99.90;;;;;;5012865;28;20045;-69
2020/12/16 08:30:19;;;;;;;19.20;8.25;;;5.70;99.90;;;;;;5015397;28;20037;-69
2020/12/16 08:33:01;;;;;;;14.07;8.00;;;5.70;99.90;;;;;;5012958;28;20606;-69
2020/12/16 08:35:52;;;;;;;11.32;7.40;;;5.70;99.90;;;;;;5025887;28;20063;-69
2020/12/16 08:38:37;;;;;;;12.98;7.88;;;5.80;99.90;;;;;;5007465;28;20054;-69
2020/12/16 08:41:06;;;;;;;14.05;7.50;;;5.80;99.90;;;;;;5013676;28;20425;-69
2020/12/16 08:43:35;;;;;;;11.35;7.20;;;5.80;99.90;;;;;;5025901;28;20493;-69
2020/12/16 08:46:03;;;;;;;14.20;8.25;;;5.90;99.90;;;;;;5016228;28;20053;-68
2020/12/16 08:48:53;;;;;;;12.73;8.00;;;5.90;99.90;;;;;;5010615;28;20042;-69
2020/12/16 08:51:22;;;;;;;12.27;7.50;;;5.90;99.90;;;;;;5009920;28;20056;-69
2020/12/16 08:53:57;;;;;;;12.23;7.93;;;5.90;99.90;;;;;;5012709;28;20058;-69
2020/12/16 08:56:28;;;;;;;10.48;6.75;;;6.00;99.90;;;;;;5008013;28;20100;-68
2020/12/16 08:59:23;;;;;;;13.02;8.50;;;6.00;99.90;;;;;;5004016;28;20058;-69
2020/12/16 09:01:52;;;;;;;13.05;8.57;;;6.10;99.90;;;;;;5006557;28;20061;-69
2020/12/16 09:04:21;;;;;;;13.68;8.90;;;6.10;99.90;;;;;;5010683;28;20092;-70
2020/12/16 09:06:58;;;;;;;13.73;8.95;;;6.30;99.90;;;;;;5013223;28;20131;-69
2020/12/16 09:09:24;;;;;;;13.50;9.07;;;6.50;99.90;;;;;;5028403;28;20050;-69
2020/12/16 09:11:51;;;;;;;15.18;9.10;;;6.60;99.90;;;;;;5015158;28;20045;-70
2020/12/16 09:14:19;;;;;;;12.55;8.05;;;6.90;99.90;;;;;;5026722;28;20049;-68
2020/12/16 09:16:46;;;;;;;14.02;8.85;;;7.10;99.90;;;;;;5026672;28;20049;-68
2020/12/16 09:19:18;;;;;;;13.55;8.73;;;7.30;99.90;;;;;;5027973;28;20065;-68
2020/12/16 09:21:45;;;;;;;14.98;8.82;;;7.40;99.90;;;;;;5024482;28;20122;-68
2020/12/16 09:24:13;;;;;;;12.43;8.23;;;7.60;99.90;;;;;;5028246;28;20495;-69
2020/12/16 09:26:42;;;;;;;14.88;8.35;;;7.70;99.90;;;;;;5025388;28;20050;-69
2020/12/16 09:29:22;;;;;;;11.63;7.45;;;7.80;99.90;;;;;;5020939;28;20468;-69
2020/12/16 09:31:51;;;;;;;12.65;8.43;;;8.00;99.90;;;;;;5027048;28;20096;-69
2020/12/16 09:34:19;;;;;;;12.63;8.10;;;8.10;99.90;;;;;;5019247;28;20053;-69
2020/12/16 09:36:46;;;;;;;12.40;7.97;;;8.20;99.90;;;;;;5023253;28;20042;-69
2020/12/16 09:39:18;;;;;;;9.85;6.90;;;8.20;99.90;;;;;;5023637;28;20049;-69
2020/12/16 09:41:47;;;;;;;9.80;7.20;;;8.20;99.90;;;;;;5035609;28;20711;-69
2020/12/16 09:44:26;;;;;;;12.10;7.93;;;8.20;99.90;;;;;;5020385;28;20081;-68
2020/12/16 09:46:53;;;;;;;11.82;7.78;;;8.10;99.90;;;;;;5024147;28;20180;-69
2020/12/16 09:49:20;;;;;;;11.52;8.00;;;8.10;99.90;;;;;;5023420;28;20053;-69
2020/12/16 09:51:51;;;;;;;11.77;7.57;;;8.10;99.90;;;;;;5014253;28;20506;-69
2020/12/16 09:54:29;;;;;;;15.70;9.02;;;8.20;99.90;;;;;;5018199;28;20050;-69
2020/12/16 09:57:09;;;;;;;12.45;8.65;;;8.40;99.90;;;;;;5023116;28;20487;-69
2020/12/16 09:59:36;;;;;;;14.60;8.45;;;8.50;99.90;;;;;;5021705;28;20112;-69
2020/12/16 10:02:03;;;;;;;12.55;8.38;;;8.60;99.90;;;;;;5024299;28;20369;-70
2020/12/16 10:04:29;;;;;;;11.77;7.97;;;8.80;99.90;;;;;;5016216;28;20555;-70
2020/12/16 10:06:56;;;;;;;11.27;7.50;;;8.90;99.90;;;;;;5023840;28;20451;-70
2020/12/16 10:09:22;;;;;;;12.82;7.53;;;9.10;99.90;;;;;;5032572;28;20096;-70
2020/12/16 10:11:49;;;;;;;11.20;7.03;;;9.20;99.90;;;;;;5022187;28;20050;-70
2020/12/16 10:14:17;;;;;;;11.02;6.88;;;9.30;99.90;;;;;;5029814;28;20057;-70
2020/12/16 10:16:46;;;;;;;10.70;6.95;;;9.40;99.90;;;;;;5025685;28;20057;-70
2020/12/16 10:19:16;;;;;;;9.55;6.85;;;9.50;99.90;;;;;;5027203;28;20096;-70
2020/12/16 10:21:47;;;;;;;11.10;7.40;;;9.60;99.90;;;;;;5024608;28;20049;-69
2020/12/16 10:24:16;;;;;;;10.88;7.15;;;9.80;99.90;;;;;;5027249;28;20083;-70
2020/12/16 10:26:49;;;;;;;10.70;7.32;;;9.90;99.90;;;;;;5025682;28;20049;-69
2020/12/16 10:29:16;;;;;;;11.50;7.35;;;10.20;99.90;;;;;;5036162;28;20111;-69
2020/12/16 10:31:47;;;;;;;10.18;6.60;;;10.40;99.90;;;;;;5024389;28;20052;-70
2020/12/16 10:34:14;;;;;;;11.10;6.78;;;10.70;99.90;;;;;;5015892;28;20448;-70
2020/12/16 10:36:41;;;;;;;8.63;6.00;;;10.90;99.90;;;;;;5020418;28;20460;-69
2020/12/16 10:39:07;;;;;;;9.25;6.28;;;11.10;99.90;;;;;;5031038;28;20068;-69
2020/12/16 10:41:33;;;;;;;8.40;6.03;;;11.30;99.90;;;;;;5022968;28;20057;-69
2020/12/16 10:44:00;;;;;;;8.43;6.03;;;11.50;99.90;;;;;;5019909;28;20057;-70
2020/12/16 10:46:27;;;;;;;8.40;6.05;;;11.90;99.90;;;;;;5035142;28;20058;-70
2020/12/16 10:48:54;;;;;;;9.35;6.35;;;12.10;99.90;;;;;;5024807;28;20148;-69
2020/12/16 10:51:20;;;;;;;7.93;5.75;;;12.30;99.90;;;;;;5024801;28;20070;-70
2020/12/16 10:53:47;;;;;;;8.25;6.07;;;12.50;99.90;;;;;;5025963;28;20046;-71
2020/12/16 10:56:14;;;;;;;10.38;6.28;;;12.70;99.90;;;;;;5027729;28;20188;-70
2020/12/16 10:58:48;;;;;;;8.30;5.82;;;12.80;99.90;;;;;;5025556;28;20060;-70
2020/12/16 11:01:15;;;;;;;7.88;5.75;;;12.90;99.90;;;;;;5018167;28;20066;-69
2020/12/16 11:03:44;;;;;;;8.65;5.20;;;13.00;99.90;;;;;;5025762;28;20369;-70
2020/12/16 11:06:19;;;;;;;;;;;13.10;99.90;;;;;;5027760;28;20471;-69
2020/12/16 11:08:45;;;;;;;8.07;5.43;;;13.30;99.90;;;;;;5033633;28;20339;-70
2020/12/16 11:11:12;;;;;;;9.75;5.95;;;13.50;99.90;;;;;;5012306;28;20053;-70
2020/12/16 11:13:58;;;;;;;7.80;5.60;;;13.80;99.90;;;;;;5008389;28;20127;-70
2020/12/16 11:16:30;;;;;;;7.70;5.70;;;13.90;99.90;;;;;;5008588;28;20056;-70
2020/12/16 11:18:58;;;;;;;9.05;6.35;;;14.10;99.90;;;;;;5012002;28;20045;-69
2020/12/16 11:21:27;;;;;;;7.32;5.47;;;14.20;99.90;;;;;;5005725;28;20058;-69
2020/12/16 11:23:55;;;;;;;7.43;5.90;;;14.30;99.90;;;;;;5012781;28;20050;-70
2020/12/16 11:26:22;;;;;;;8.13;5.70;;;14.50;99.90;;;;;;5007580;28;20504;-70
2020/12/16 11:29:03;;;;;;;7.93;5.70;;;14.70;99.90;;;;;;5019448;28;20345;-69
2020/12/16 11:31:31;;;;;;;7.80;5.68;;;14.80;99.90;;;;;;5010641;28;20476;-69
2020/12/16 11:33:57;;;;;;;7.75;5.20;;;15.00;99.90;;;;;;5013644;28;20099;-69
2020/12/16 11:36:25;;;;;;;6.90;5.10;;;15.30;99.90;;;;;;5005480;28;20056;-70
2020/12/16 11:38:51;;;;;;;7.55;5.45;;;15.50;99.90;;;;;;5008901;28;20058;-70
2020/12/16 11:41:18;;;;;;;8.65;5.72;;;15.60;99.90;;;;;;5006018;28;20061;-70
2020/12/16 11:43:44;;;;;;;8.75;6.05;;;15.80;99.90;;;;;;5006562;28;20045;-70
2020/12/16 11:46:10;;;;;;;8.02;5.70;;;15.90;99.90;;;;;;5010650;28;20099;-70
2020/12/16 11:48:37;;;;;;;9.38;6.43;;;15.90;99.90;;;;;;5006950;28;20103;-70
2020/12/16 11:51:03;;;;;;;8.98;6.43;;;15.80;99.90;;;;;;5009453;28;20049;-70
2020/12/16 11:53:30;;;;;;;9.45;5.90;;;15.80;99.90;;;;;;5012407;28;20045;-70
2020/12/16 11:55:56;;;;;;;8.10;5.85;;;15.90;99.90;;;;;;5010069;28;20071;-70
2020/12/16 11:58:24;;;;;;;8.18;5.50;;;16.10;99.90;;;;;;5011148;28;20132;-70
2020/12/16 12:00:51;;;;;;;10.98;6.68;;;16.20;99.90;;;;;;5009906;28;20107;-70
2020/12/16 12:03:20;;;;;;;7.90;6.03;;;16.30;99.90;;;;;;5008063;28;20052;-70
2020/12/16 12:05:46;;;;;;;9.63;6.60;;;16.20;99.90;;;;;;5031667;28;20089;-70
2020/12/16 12:08:13;;;;;;;8.18;5.95;;;16.40;99.90;;;;;;5012513;28;20097;-70
2020/12/16 12:10:39;;;;;;;7.72;5.90;;;16.50;99.90;;;;;;5012827;28;20385;-70
2020/12/16 12:13:05;;;;;;;8.38;5.78;;;16.70;99.90;;;;;;5016946;28;20104;-69
2020/12/16 12:15:37;;;;;;;8.32;6.28;;;16.70;99.90;;;;;;5010737;28;20050;-70
2020/12/16 12:18:03;;;;;;;8.98;6.15;;;16.60;99.90;;;;;;5017106;28;20400;-70
2020/12/16 12:20:46;;;;;;;8.88;6.50;;;16.60;99.90;;;;;;5024289;28;20045;-70
2020/12/16 12:23:13;;;;;;;8.63;6.68;;;16.50;99.90;;;;;;5022335;28;20049;-70
2020/12/16 12:25:40;;;;;;;8.18;6.10;;;16.50;99.90;;;;;;5023663;28;20058;-70
2020/12/16 12:28:06;;;;;;;8.95;6.57;;;16.50;99.90;;;;;;5024058;28;20061;-70
2020/12/16 12:30:45;;;;;;;8.20;5.82;;;16.60;99.90;;;;;;5028832;28;20100;-70
2020/12/16 12:33:12;;;;;;;8.52;6.13;;;16.50;99.90;;;;;;5015044;28;20052;-70
2020/12/16 12:35:54;;;;;;;9.02;6.40;;;16.40;99.90;;;;;;5024621;28;20105;-70
2020/12/16 12:38:21;;;;;;;7.80;5.90;;;16.30;99.90;;;;;;5028396;28;20108;-70
2020/12/16 12:40:48;;;;;;;8.95;6.70;;;16.30;99.90;;;;;;5041787;28;20361;-70
2020/12/16 12:43:16;;;;;;;9.90;6.35;;;16.40;99.90;;;;;;5021830;28;20111;-70
2020/12/16 12:45:45;;;;;;;8.80;5.97;;;16.60;99.90;;;;;;5026327;28;20079;-70
2020/12/16 12:48:11;;;;;;;8.35;6.20;;;16.70;99.90;;;;;;5029351;28;20085;-70
2020/12/16 12:50:40;;;;;;;9.45;6.72;;;16.80;99.90;;;;;;5026263;28;20464;-70
2020/12/16 12:53:08;;;;;;;8.38;6.30;;;16.80;99.90;;;;;;5037858;28;20064;-69
2020/12/16 12:55:41;;;;;;;9.90;6.68;;;16.70;99.90;;;;;;5023095;28;20073;-69